DLH438 EDDF-KDFW
Flight info
| Callsign | DLH438 |
|---|---|
| Flight time | N/A |
| Altitude | 34000 |
| Route | OBOKA2E OBOKA Z28 DIBIR DCT BUDIP DCT MIMVA DCT GETNO DCT NIBOG DCT PIKIL/M084F340 DCT 56N020W 55N030W 53N040W 51N050W DCT ALLRY/N0490F340 DCT ANCER DCT OXASA DCT NOTAP DCT ODAXY DCT OBK DCT KG66K DCT KK57I DCT KK42G DCT MLC DCT AXXEE BRDJE5 |
| Aircraft | A346/H-SDE2E3FGHIJ3J4J5M1RWXY/LB1D1 |
Departure
| Time | 2026-05-07 23:53 |
|---|---|
| Airport | Frankfurt Main Airport (EDDF) |
Arrival
| Time | N/A |
|---|---|
| Airport | Dallas Fort Worth International Airport (KDFW) |
| Time | Latitude | Longitude | Altitude | Speed | Heading |
|---|---|---|---|---|---|
| 2026-05-07 23:19 | 50.04688 | 8.56191 | 364 ft | 0 kts | 322° |
| 2026-05-07 23:41 | 50.04679 | 8.56202 | 364 ft | 4 kts | 321° |
| 2026-05-07 23:41 | 50.04659 | 8.56229 | 364 ft | 4 kts | 316° |
| 2026-05-07 23:41 | 50.04642 | 8.56259 | 364 ft | 4 kts | 301° |
| 2026-05-07 23:41 | 50.04634 | 8.56290 | 364 ft | 4 kts | 270° |
| 2026-05-07 23:42 | 50.04638 | 8.56317 | 366 ft | 4 kts | 251° |
| 2026-05-07 23:42 | 50.04647 | 8.56357 | 364 ft | 4 kts | 249° |
| 2026-05-07 23:42 | 50.04657 | 8.56396 | 364 ft | 4 kts | 250° |
| 2026-05-07 23:42 | 50.04660 | 8.56409 | 364 ft | 0 kts | 251° |
| 2026-05-07 23:44 | 50.04660 | 8.56408 | 364 ft | 1 kts | 251° |
| 2026-05-07 23:45 | 50.04655 | 8.56388 | 364 ft | 4 kts | 251° |
| 2026-05-07 23:45 | 50.04643 | 8.56335 | 366 ft | 7 kts | 250° |
| 2026-05-07 23:45 | 50.04629 | 8.56278 | 370 ft | 6 kts | 249° |
| 2026-05-07 23:45 | 50.04611 | 8.56202 | 369 ft | 9 kts | 249° |
| 2026-05-07 23:46 | 50.04585 | 8.56094 | 370 ft | 12 kts | 249° |
| 2026-05-07 23:46 | 50.04549 | 8.55976 | 365 ft | 13 kts | 226° |
| 2026-05-07 23:46 | 50.04465 | 8.55929 | 369 ft | 13 kts | 197° |
| 2026-05-07 23:46 | 50.04371 | 8.55917 | 369 ft | 12 kts | 164° |
| 2026-05-07 23:47 | 50.04292 | 8.55955 | 363 ft | 10 kts | 164° |
| 2026-05-07 23:47 | 50.04234 | 8.55915 | 368 ft | 12 kts | 245° |
| 2026-05-07 23:47 | 50.04199 | 8.55774 | 361 ft | 16 kts | 249° |
| 2026-05-07 23:47 | 50.04156 | 8.55592 | 365 ft | 20 kts | 249° |
| 2026-05-07 23:48 | 50.04102 | 8.55368 | 362 ft | 24 kts | 249° |
| 2026-05-07 23:48 | 50.04043 | 8.55123 | 365 ft | 24 kts | 250° |
| 2026-05-07 23:48 | 50.03983 | 8.54870 | 365 ft | 25 kts | 250° |
| 2026-05-07 23:48 | 50.03920 | 8.54607 | 361 ft | 25 kts | 249° |
| 2026-05-07 23:49 | 50.03871 | 8.54409 | 362 ft | 18 kts | 246° |
| 2026-05-07 23:49 | 50.03807 | 8.54244 | 360 ft | 18 kts | 244° |
| 2026-05-07 23:49 | 50.03760 | 8.54062 | 360 ft | 18 kts | 249° |
| 2026-05-07 23:49 | 50.03715 | 8.53874 | 359 ft | 19 kts | 250° |
| 2026-05-07 23:50 | 50.03669 | 8.53678 | 358 ft | 20 kts | 250° |
| 2026-05-07 23:50 | 50.03617 | 8.53476 | 356 ft | 19 kts | 243° |
| 2026-05-07 23:50 | 50.03515 | 8.53350 | 353 ft | 20 kts | 204° |
| 2026-05-07 23:50 | 50.03388 | 8.53318 | 347 ft | 16 kts | 162° |
| 2026-05-07 23:51 | 50.03311 | 8.53432 | 355 ft | 10 kts | 125° |
| 2026-05-07 23:51 | 50.03282 | 8.53501 | 346 ft | 5 kts | 110° |
| 2026-05-07 23:51 | 50.03284 | 8.53556 | 348 ft | 6 kts | 78° |
| 2026-05-07 23:51 | 50.03301 | 8.53624 | 349 ft | 10 kts | 69° |
| 2026-05-07 23:52 | 50.03389 | 8.53994 | 357 ft | 71 kts | 70° |
| 2026-05-07 23:52 | 50.03639 | 8.55038 | 358 ft | 133 kts | 69° |
| 2026-05-07 23:52 | 50.04027 | 8.56662 | 368 ft | 184 kts | 70° |
| 2026-05-07 23:52 | 50.04494 | 8.58679 | 753 ft | 198 kts | 70° |
| 2026-05-07 23:53 | 50.04951 | 8.60660 | 1679 ft | 190 kts | 69° |
| 2026-05-07 23:53 | 50.05456 | 8.62540 | 2335 ft | 189 kts | 54° |
| 2026-05-07 23:53 | 50.06524 | 8.63711 | 2612 ft | 201 kts | 13° |
| 2026-05-07 23:53 | 50.07965 | 8.63764 | 2912 ft | 215 kts | 356° |
| 2026-05-07 23:54 | 50.09510 | 8.63569 | 3204 ft | 232 kts | 356° |
| 2026-05-07 23:54 | 50.11184 | 8.63387 | 3523 ft | 249 kts | 357° |
| 2026-05-07 23:54 | 50.12968 | 8.63233 | 3890 ft | 264 kts | 357° |
| 2026-05-07 23:54 | 50.14822 | 8.63092 | 4514 ft | 268 kts | 358° |
| 2026-05-07 23:55 | 50.16688 | 8.62960 | 5222 ft | 269 kts | 358° |
| 2026-05-07 23:55 | 50.18568 | 8.62831 | 5899 ft | 272 kts | 358° |
| 2026-05-07 23:55 | 50.20466 | 8.62703 | 6546 ft | 275 kts | 358° |
| 2026-05-07 23:55 | 50.22387 | 8.62573 | 7187 ft | 278 kts | 357° |
| 2026-05-07 23:56 | 50.23667 | 8.62487 | 7607 ft | 279 kts | 357° |
| 2026-05-07 23:56 | 50.25619 | 8.62356 | 8236 ft | 282 kts | 357° |
| 2026-05-07 23:56 | 50.27589 | 8.62223 | 8853 ft | 285 kts | 357° |
| 2026-05-07 23:56 | 50.29577 | 8.62088 | 9456 ft | 287 kts | 356° |
| 2026-05-07 23:57 | 50.31526 | 8.61389 | 9990 ft | 290 kts | 330° |
| 2026-05-07 23:57 | 50.33065 | 8.59366 | 10496 ft | 294 kts | 304° |
| 2026-05-07 23:57 | 50.33947 | 8.56419 | 10780 ft | 306 kts | 288° |
| 2026-05-07 23:57 | 50.34616 | 8.53152 | 11054 ft | 321 kts | 287° |
| 2026-05-07 23:58 | 50.35319 | 8.49753 | 11316 ft | 335 kts | 288° |
| 2026-05-07 23:58 | 50.36069 | 8.46212 | 11579 ft | 349 kts | 288° |
| 2026-05-07 23:58 | 50.36858 | 8.42537 | 11834 ft | 363 kts | 288° |
| 2026-05-07 23:58 | 50.37525 | 8.38651 | 12107 ft | 375 kts | 277° |
| 2026-05-07 23:59 | 50.37560 | 8.34553 | 12640 ft | 378 kts | 263° |
| 2026-05-07 23:59 | 50.36976 | 8.30529 | 13277 ft | 379 kts | 253° |
| 2026-05-07 23:59 | 50.36189 | 8.26568 | 13871 ft | 382 kts | 252° |
| 2026-05-07 23:59 | 50.35375 | 8.22577 | 14409 ft | 386 kts | 252° |
| 2026-05-08 00:00 | 50.34555 | 8.18554 | 14952 ft | 389 kts | 252° |
| 2026-05-08 00:00 | 50.33734 | 8.14498 | 15492 ft | 392 kts | 252° |
| 2026-05-08 00:00 | 50.32912 | 8.10420 | 16027 ft | 394 kts | 252° |
| 2026-05-08 00:00 | 50.32083 | 8.06305 | 16553 ft | 397 kts | 252° |
| 2026-05-08 00:01 | 50.31248 | 8.02168 | 17058 ft | 400 kts | 252° |
| 2026-05-08 00:01 | 50.30409 | 7.98014 | 17552 ft | 402 kts | 252° |
| 2026-05-08 00:01 | 50.29767 | 7.93739 | 17986 ft | 406 kts | 264° |
| 2026-05-08 00:01 | 50.29869 | 7.89323 | 18460 ft | 408 kts | 280° |
| 2026-05-08 00:02 | 50.30710 | 7.85072 | 18933 ft | 411 kts | 293° |
| 2026-05-08 00:02 | 50.31895 | 7.80986 | 19413 ft | 413 kts | 294° |
| 2026-05-08 00:02 | 50.33115 | 7.76893 | 19832 ft | 416 kts | 294° |
| 2026-05-08 00:02 | 50.34339 | 7.72755 | 20262 ft | 419 kts | 295° |
| 2026-05-08 00:03 | 50.35851 | 7.68835 | 20640 ft | 424 kts | 308° |
| 2026-05-08 00:03 | 50.37978 | 7.65630 | 21059 ft | 427 kts | 323° |
| 2026-05-08 00:03 | 50.40568 | 7.63331 | 21474 ft | 430 kts | 335° |
| 2026-05-08 00:03 | 50.43315 | 7.61447 | 21908 ft | 432 kts | 336° |
| 2026-05-08 00:04 | 50.46092 | 7.59593 | 22279 ft | 435 kts | 336° |
| 2026-05-08 00:04 | 50.48884 | 7.57709 | 22670 ft | 438 kts | 336° |
| 2026-05-08 00:04 | 50.51690 | 7.55791 | 23040 ft | 441 kts | 335° |
| 2026-05-08 00:04 | 50.54466 | 7.53734 | 23408 ft | 443 kts | 332° |
| 2026-05-08 00:05 | 50.57181 | 7.51420 | 23779 ft | 445 kts | 329° |
| 2026-05-08 00:05 | 50.59826 | 7.48863 | 24135 ft | 447 kts | 327° |
| 2026-05-08 00:05 | 50.62441 | 7.46201 | 24501 ft | 449 kts | 326° |
| 2026-05-08 00:05 | 50.65029 | 7.43534 | 24832 ft | 451 kts | 326° |
| 2026-05-08 00:06 | 50.67659 | 7.40820 | 25173 ft | 453 kts | 326° |
| 2026-05-08 00:06 | 50.70311 | 7.38089 | 25518 ft | 455 kts | 326° |
| 2026-05-08 00:06 | 50.72856 | 7.35105 | 25840 ft | 457 kts | 319° |
| 2026-05-08 00:06 | 50.75164 | 7.31644 | 26150 ft | 458 kts | 312° |
| 2026-05-08 00:07 | 50.77201 | 7.27759 | 26469 ft | 459 kts | 306° |
| 2026-05-08 00:07 | 50.79072 | 7.23656 | 26792 ft | 461 kts | 304° |
| 2026-05-08 00:07 | 50.80917 | 7.19490 | 27091 ft | 463 kts | 304° |
| 2026-05-08 00:07 | 50.82768 | 7.15289 | 27387 ft | 465 kts | 304° |
| 2026-05-08 00:08 | 50.84628 | 7.11080 | 27679 ft | 467 kts | 304° |
| 2026-05-08 00:08 | 50.86496 | 7.06864 | 28017 ft | 468 kts | 304° |
| 2026-05-08 00:08 | 50.88364 | 7.02649 | 28444 ft | 466 kts | 304° |
| 2026-05-08 00:08 | 50.90219 | 6.98464 | 28884 ft | 464 kts | 304° |
| 2026-05-08 00:09 | 50.92078 | 6.94262 | 29296 ft | 462 kts | 304° |
| 2026-05-08 00:09 | 50.93922 | 6.90088 | 29677 ft | 461 kts | 304° |
| 2026-05-08 00:09 | 50.95759 | 6.85925 | 30047 ft | 460 kts | 304° |
| 2026-05-08 00:09 | 50.97594 | 6.81761 | 30416 ft | 459 kts | 304° |
| 2026-05-08 00:10 | 50.99423 | 6.77601 | 30768 ft | 458 kts | 304° |
| 2026-05-08 00:10 | 51.01244 | 6.73455 | 31107 ft | 458 kts | 304° |
| 2026-05-08 00:10 | 51.03067 | 6.69298 | 31429 ft | 457 kts | 304° |
| 2026-05-08 00:10 | 51.04883 | 6.65147 | 31742 ft | 457 kts | 304° |
| 2026-05-08 00:11 | 51.06693 | 6.61004 | 32047 ft | 456 kts | 304° |
| 2026-05-08 00:11 | 51.08502 | 6.56856 | 32346 ft | 455 kts | 303° |
| 2026-05-08 00:11 | 51.10307 | 6.52709 | 32602 ft | 456 kts | 303° |
| 2026-05-08 00:11 | 51.12114 | 6.48552 | 32822 ft | 457 kts | 303° |
| 2026-05-08 00:12 | 51.13927 | 6.44372 | 33031 ft | 458 kts | 303° |
| 2026-05-08 00:12 | 51.15741 | 6.40186 | 33241 ft | 459 kts | 303° |
| 2026-05-08 00:12 | 51.17556 | 6.35989 | 33456 ft | 460 kts | 303° |
| 2026-05-08 00:12 | 51.19384 | 6.31756 | 33673 ft | 461 kts | 303° |
| 2026-05-08 00:13 | 51.21204 | 6.27537 | 33879 ft | 462 kts | 303° |
| 2026-05-08 00:13 | 51.23022 | 6.23313 | 34063 ft | 463 kts | 303° |
| 2026-05-08 00:13 | 51.26670 | 6.14815 | 34094 ft | 464 kts | 303° |
| 2026-05-08 00:14 | 51.30272 | 6.06210 | 34099 ft | 464 kts | 302° |
| 2026-05-08 00:14 | 51.33799 | 5.97554 | 34099 ft | 464 kts | 303° |
| 2026-05-08 00:15 | 51.37664 | 5.89252 | 34099 ft | 465 kts | 309° |
| 2026-05-08 00:15 | 51.42061 | 5.81631 | 34102 ft | 466 kts | 315° |
| 2026-05-08 00:16 | 51.46872 | 5.74619 | 34102 ft | 467 kts | 317° |
| 2026-05-08 00:16 | 51.51744 | 5.67710 | 34100 ft | 467 kts | 317° |
| 2026-05-08 00:17 | 51.56615 | 5.60775 | 34099 ft | 467 kts | 317° |
| 2026-05-08 00:17 | 51.61451 | 5.53856 | 34098 ft | 467 kts | 317° |
| 2026-05-08 00:18 | 51.66309 | 5.46881 | 34098 ft | 467 kts | 317° |
| 2026-05-08 00:18 | 51.71161 | 5.39892 | 34101 ft | 467 kts | 317° |
| 2026-05-08 00:19 | 51.75985 | 5.32924 | 34103 ft | 467 kts | 317° |
| 2026-05-08 00:19 | 51.80819 | 5.25919 | 34100 ft | 467 kts | 317° |
| 2026-05-08 00:20 | 51.85672 | 5.18865 | 34103 ft | 466 kts | 317° |
| 2026-05-08 00:20 | 51.90501 | 5.11826 | 34108 ft | 466 kts | 316° |
| 2026-05-08 00:21 | 51.95317 | 5.04783 | 34110 ft | 466 kts | 316° |
| 2026-05-08 00:21 | 52.00124 | 4.97733 | 34109 ft | 466 kts | 316° |
| 2026-05-08 00:22 | 52.04947 | 4.90633 | 34109 ft | 467 kts | 316° |
| 2026-05-08 00:22 | 52.09745 | 4.83552 | 34103 ft | 468 kts | 316° |
| 2026-05-08 00:23 | 52.14574 | 4.76406 | 34098 ft | 468 kts | 316° |
| 2026-05-08 00:23 | 52.19365 | 4.69292 | 34100 ft | 467 kts | 316° |
| 2026-05-08 00:24 | 52.24178 | 4.62124 | 34099 ft | 467 kts | 316° |
| 2026-05-08 00:24 | 52.28989 | 4.54938 | 34102 ft | 467 kts | 316° |
| 2026-05-08 00:25 | 52.33748 | 4.47806 | 34101 ft | 467 kts | 316° |
| 2026-05-08 00:25 | 52.38552 | 4.40584 | 34099 ft | 467 kts | 316° |
| 2026-05-08 00:26 | 52.43336 | 4.33371 | 34108 ft | 467 kts | 316° |
| 2026-05-08 00:26 | 52.48085 | 4.26190 | 34109 ft | 467 kts | 316° |
| 2026-05-08 00:27 | 52.52873 | 4.18926 | 34115 ft | 467 kts | 316° |
| 2026-05-08 00:27 | 52.57665 | 4.11633 | 34118 ft | 467 kts | 316° |
| 2026-05-08 00:28 | 52.62421 | 4.04372 | 34118 ft | 467 kts | 316° |
| 2026-05-08 00:28 | 52.67193 | 3.97066 | 34119 ft | 467 kts | 316° |
| 2026-05-08 00:29 | 52.71962 | 3.89741 | 34119 ft | 467 kts | 316° |
| 2026-05-08 00:29 | 52.76698 | 3.82443 | 34125 ft | 468 kts | 316° |
| 2026-05-08 00:30 | 52.81458 | 3.75084 | 34127 ft | 468 kts | 316° |
| 2026-05-08 00:30 | 52.86225 | 3.67695 | 34127 ft | 469 kts | 316° |
| 2026-05-08 00:31 | 52.90961 | 3.60328 | 34133 ft | 469 kts | 316° |
| 2026-05-08 00:31 | 52.95742 | 3.52871 | 34129 ft | 470 kts | 316° |
| 2026-05-08 00:32 | 53.00473 | 3.45465 | 34128 ft | 470 kts | 316° |
| 2026-05-08 00:32 | 53.05072 | 3.37726 | 34121 ft | 469 kts | 309° |
| 2026-05-08 00:33 | 53.08833 | 3.28853 | 34119 ft | 468 kts | 299° |
| 2026-05-08 00:33 | 53.11593 | 3.19036 | 34111 ft | 467 kts | 289° |
| 2026-05-08 00:34 | 53.13384 | 3.08684 | 34100 ft | 467 kts | 283° |
| 2026-05-08 00:34 | 53.14949 | 2.98178 | 34102 ft | 467 kts | 283° |
| 2026-05-08 00:35 | 53.16509 | 2.87652 | 34102 ft | 467 kts | 283° |
| 2026-05-08 00:35 | 53.18071 | 2.77105 | 34101 ft | 467 kts | 283° |
| 2026-05-08 00:36 | 53.19620 | 2.66607 | 34099 ft | 467 kts | 283° |
| 2026-05-08 00:36 | 53.21155 | 2.56138 | 34102 ft | 467 kts | 283° |